Time,TemperatureF,DewpointF,PressureIn,WindDirection,WindDirectionDegrees,WindSpeedMPH,WindSpeedGustMPH,Humidity,HourlyPrecipIn,Conditions,Clouds,dailyrainin,SoftwareType,DateUTC
2013-03-20 00:08:00,19.2,11.0,30.32,WNW,290,0.0,0.0,69,0.00,,,0.00,weatherlink.com 1.10,2013-03-20 06:08:00,
2013-03-20 00:23:00,19.5,11.0,30.32,NNW,343,0.0,1.0,69,0.00,,,0.00,weatherlink.com 1.10,2013-03-20 06:23:00,
2013-03-20 00:38:00,17.8,11.0,30.32,NNW,342,0.0,0.0,74,0.00,,,0.00,weatherlink.com 1.10,2013-03-20 06:38:00,
2013-03-20 00:53:00,16.9,10.0,30.31,NNW,340,0.0,1.0,74,0.00,,,0.00,weatherlink.com 1.10,2013-03-20 06:53:00,
2013-03-20 01:08:00,16.3,11.0,30.32,NNW,340,0.0,0.0,79,0.00,,,0.00,weatherlink.com 1.10,2013-03-20 07:08:00,
2013-03-20 01:23:00,15.2,10.0,30.31,NNW,340,0.0,0.0,80,0.00,,,0.00,weatherlink.com 1.10,2013-03-20 07:23:00,
2013-03-20 01:38:00,15.8,12.0,30.31,NNW,340,0.0,0.0,84,0.00,,,0.00,weatherlink.com 1.10,2013-03-20 07:38:00,
2013-03-20 01:53:00,15.8,11.0,30.31,NNW,340,0.0,0.0,80,0.00,,,0.00,weatherlink.com 1.10,2013-03-20 07:53:00,
2013-03-20 02:08:00,15.2,11.0,30.30,NNW,327,0.0,1.0,84,0.00,,,0.00,weatherlink.com 1.10,2013-03-20 08:08:00,
2013-03-20 02:23:00,15.6,11.0,30.29,NW,321,0.0,2.0,83,0.00,,,0.00,weatherlink.com 1.10,2013-03-20 08:23:00,
2013-03-20 02:38:00,14.9,11.0,30.29,NW,321,0.0,1.0,84,0.00,,,0.00,weatherlink.com 1.10,2013-03-20 08:38:00,
2013-03-20 02:53:00,14.1,11.0,30.28,NW,321,0.0,1.0,86,0.00,,,0.00,weatherlink.com 1.10,2013-03-20 08:53:00,
2013-03-20 03:08:00,13.9,11.0,30.27,East,86,0.0,1.0,88,0.00,,,0.00,weatherlink.com 1.10,2013-03-20 09:08:00,
2013-03-20 03:23:00,13.9,11.0,30.27,SSE,167,0.0,1.0,88,0.00,,,0.00,weatherlink.com 1.10,2013-03-20 09:23:00,
2013-03-20 03:38:00,13.6,11.0,30.26,SE,141,0.0,1.0,88,0.00,,,0.00,weatherlink.com 1.10,2013-03-20 09:38:00,
2013-03-20 03:53:00,13.4,11.0,30.25,SSE,166,0.0,2.0,89,0.00,,,0.00,weatherlink.com 1.10,2013-03-20 09:53:00,
2013-03-20 04:09:00,13.0,10.0,30.25,South,181,0.0,1.0,88,0.00,,,0.00,weatherlink.com 1.10,2013-03-20 10:09:00,
2013-03-20 04:24:00,12.7,10.0,30.24,SSE,160,0.0,1.0,88,0.00,,,0.00,weatherlink.com 1.10,2013-03-20 10:24:00,
2013-03-20 04:39:00,12.2,9.0,30.24,SSE,155,0.0,1.0,88,0.00,,,0.00,weatherlink.com 1.10,2013-03-20 10:39:00,
2013-03-20 04:54:00,12.0,9.0,30.23,NW,326,0.0,2.0,89,0.00,,,0.00,weatherlink.com 1.10,2013-03-20 10:54:00,
2013-03-20 05:09:00,11.8,9.0,30.24,SE,130,1.0,2.0,89,0.00,,,0.00,weatherlink.com 1.10,2013-03-20 11:09:00,
2013-03-20 05:24:00,8.7,6.0,30.23,SSE,160,0.0,2.0,88,0.00,,,0.00,weatherlink.com 1.10,2013-03-20 11:24:00,
2013-03-20 05:39:00,-999.0,-99.9,30.22,North,-999,-999.0,-999.0,-999,0.00,,,0.00,weatherlink.com 1.10,2013-03-20 11:39:00,
2013-03-20 05:54:00,-999.0,-99.9,30.21,North,-999,-999.0,-999.0,-999,0.00,,,0.00,weatherlink.com 1.10,2013-03-20 11:54:00,
2013-03-20 06:09:00,-999.0,-99.9,30.20,North,-999,-999.0,-999.0,-999,0.00,,,0.00,weatherlink.com 1.10,2013-03-20 12:09:00,
2013-03-20 06:24:00,-999.0,-99.9,30.20,North,-999,-999.0,-999.0,-999,0.00,,,0.00,weatherlink.com 1.10,2013-03-20 12:24:00,
2013-03-20 06:39:00,-999.0,-99.9,30.18,North,-999,-999.0,-999.0,-999,0.00,,,0.00,weatherlink.com 1.10,2013-03-20 12:39:00,
2013-03-20 06:54:00,-999.0,-99.9,30.18,North,-999,-999.0,-999.0,-999,0.00,,,0.00,weatherlink.com 1.10,2013-03-20 12:54:00,
2013-03-20 07:09:00,-999.0,-99.9,30.17,North,-999,-999.0,-999.0,-999,0.00,,,0.00,weatherlink.com 1.10,2013-03-20 13:09:00,
2013-03-20 07:24:00,-999.0,-99.9,30.17,North,-999,-999.0,-999.0,-999,0.00,,,0.00,weatherlink.com 1.10,2013-03-20 13:24:00,
2013-03-20 07:39:00,-999.0,-99.9,30.16,North,-999,-999.0,-999.0,-999,0.00,,,0.00,weatherlink.com 1.10,2013-03-20 13:39:00,
2013-03-20 07:54:00,17.5,14.0,30.16,South,190,0.0,6.0,85,0.00,,,0.00,weatherlink.com 1.10,2013-03-20 13:54:00,
2013-03-20 08:09:00,19.7,15.0,30.15,ESE,104,3.0,7.0,82,0.00,,,0.00,weatherlink.com 1.10,2013-03-20 14:09:00,
2013-03-20 08:25:00,21.7,16.0,30.15,South,172,1.0,7.0,79,0.00,,,0.00,weatherlink.com 1.10,2013-03-20 14:25:00,
2013-03-20 08:40:00,24.0,18.0,30.15,South,181,1.0,5.0,77,0.00,,,0.00,weatherlink.com 1.10,2013-03-20 14:40:00,
2013-03-20 08:55:00,26.1,20.0,30.14,NNE,30,4.0,6.0,76,0.00,,,0.00,weatherlink.com 1.10,2013-03-20 14:55:00,
2013-03-20 09:10:00,28.1,21.0,30.13,South,170,1.0,7.0,74,0.00,,,0.00,weatherlink.com 1.10,2013-03-20 15:10:00,
2013-03-20 09:25:00,30.6,21.0,30.13,NW,316,2.0,5.0,68,0.00,,,0.00,weatherlink.com 1.10,2013-03-20 15:25:00,
2013-03-20 09:40:00,32.5,21.0,30.12,SE,141,1.0,7.0,63,0.00,,,0.00,weatherlink.com 1.10,2013-03-20 15:40:00,
2013-03-20 09:55:00,35.1,21.0,30.10,SE,127,3.0,8.0,58,0.00,,,0.00,weatherlink.com 1.10,2013-03-20 15:55:00,
2013-03-20 10:10:00,37.0,22.0,30.09,SSE,159,2.0,11.0,55,0.00,,,0.00,weatherlink.com 1.10,2013-03-20 16:10:00,
2013-03-20 10:25:00,39.2,22.0,30.07,WSW,243,2.0,9.0,51,0.00,,,0.00,weatherlink.com 1.10,2013-03-20 16:25:00,
2013-03-20 10:40:00,41.5,22.0,30.05,SSE,162,5.0,10.0,46,0.00,,,0.00,weatherlink.com 1.10,2013-03-20 16:40:00,
2013-03-20 10:55:00,44.3,22.0,30.04,SSE,153,0.0,11.0,42,0.00,,,0.00,weatherlink.com 1.10,2013-03-20 16:55:00,
2013-03-20 11:10:00,47.6,21.0,30.03,SSE,166,6.0,9.0,35,0.00,,,0.00,weatherlink.com 1.10,2013-03-20 17:10:00,
2013-03-20 11:25:00,48.9,19.0,30.01,SSE,168,3.0,8.0,31,0.00,,,0.00,weatherlink.com 1.10,2013-03-20 17:25:00,
2013-03-20 11:40:00,49.1,19.0,29.99,South,174,3.0,12.0,31,0.00,,,0.00,weatherlink.com 1.10,2013-03-20 17:40:00,
2013-03-20 11:56:00,50.4,20.0,29.98,SSE,153,4.0,14.0,30,0.00,,,0.00,weatherlink.com 1.10,2013-03-20 17:56:00,
2013-03-20 12:11:00,51.1,19.0,29.96,SE,135,4.0,11.0,28,0.00,,,0.00,weatherlink.com 1.10,2013-03-20 18:11:00,
2013-03-20 12:26:00,52.1,18.0,29.95,SSW,212,5.0,11.0,26,0.00,,,0.00,weatherlink.com 1.10,2013-03-20 18:26:00,
2013-03-20 12:41:00,53.8,17.0,29.94,WSW,253,3.0,12.0,23,0.00,,,0.00,weatherlink.com 1.10,2013-03-20 18:41:00,
2013-03-20 12:56:00,55.9,15.0,29.92,South,174,5.0,12.0,20,0.00,,,0.00,weatherlink.com 1.10,2013-03-20 18:56:00,
2013-03-20 13:26:00,56.9,16.0,29.89,South,184,4.0,10.0,20,0.00,,,0.00,weatherlink.com 1.10,2013-03-20 19:26:00,
2013-03-20 13:41:00,57.8,14.0,29.89,SSE,151,8.0,12.0,18,0.00,,,0.00,weatherlink.com 1.10,2013-03-20 19:41:00,
2013-03-20 13:56:00,58.0,14.0,29.87,NNW,330,6.0,12.0,18,0.00,,,0.00,weatherlink.com 1.10,2013-03-20 19:56:00,
2013-03-20 14:11:00,57.3,16.0,29.85,South,174,4.0,13.0,20,0.00,,,0.00,weatherlink.com 1.10,2013-03-20 20:11:00,
2013-03-20 14:26:00,57.7,15.0,29.84,South,173,3.0,14.0,19,0.00,,,0.00,weatherlink.com 1.10,2013-03-20 20:26:00,
2013-03-20 14:56:00,60.0,16.0,29.81,South,173,5.0,12.0,18,0.00,,,0.00,weatherlink.com 1.10,2013-03-20 20:56:00,
2013-03-20 15:41:00,58.0,17.0,29.78,WSW,240,4.0,14.0,20,0.00,,,0.00,weatherlink.com 1.10,2013-03-20 21:41:00,
2013-03-20 15:56:00,60.1,17.0,29.77,SSW,194,1.0,9.0,19,0.00,,,0.00,weatherlink.com 1.10,2013-03-20 21:56:00,
2013-03-20 16:11:00,61.4,17.0,29.76,SSW,200,4.0,9.0,18,0.00,,,0.00,weatherlink.com 1.10,2013-03-20 22:11:00,
2013-03-20 16:42:00,60.7,17.0,29.75,East,98,6.0,10.0,18,0.00,,,0.00,weatherlink.com 1.10,2013-03-20 22:42:00,
2013-03-20 16:56:00,60.0,16.0,29.73,SSW,203,2.0,10.0,18,0.00,,,0.00,weatherlink.com 1.10,2013-03-20 22:56:00,
2013-03-20 17:12:00,57.7,25.0,29.73,SW,229,14.0,22.0,28,0.00,,,0.00,weatherlink.com 1.10,2013-03-20 23:12:00,
2013-03-20 17:27:00,53.5,31.0,29.74,SW,225,10.0,24.0,43,0.00,,,0.00,weatherlink.com 1.10,2013-03-20 23:27:00,
2013-03-20 17:42:00,52.0,32.0,29.75,SW,215,4.0,13.0,47,0.00,,,0.00,weatherlink.com 1.10,2013-03-20 23:42:00,
2013-03-20 17:57:00,50.6,34.0,29.75,WSW,250,7.0,15.0,54,0.00,,,0.00,weatherlink.com 1.10,2013-03-20 23:57:00,
2013-03-20 18:12:00,49.3,36.0,29.74,West,259,3.0,15.0,60,0.00,,,0.00,weatherlink.com 1.10,2013-03-21 00:12:00,
2013-03-20 18:27:00,48.7,36.0,29.73,WSW,238,9.0,11.0,63,0.00,,,0.00,weatherlink.com 1.10,2013-03-21 00:27:00,
2013-03-20 18:42:00,48.3,36.0,29.71,SW,214,2.0,5.0,63,0.00,,,0.00,weatherlink.com 1.10,2013-03-21 00:42:00,
2013-03-20 18:57:00,48.5,36.0,29.71,SSW,200,1.0,5.0,63,0.00,,,0.00,weatherlink.com 1.10,2013-03-21 00:57:00,
2013-03-20 19:12:00,49.4,35.0,29.69,SSW,210,2.0,5.0,59,0.00,,,0.00,weatherlink.com 1.10,2013-03-21 01:12:00,
2013-03-20 19:27:00,48.4,37.0,29.69,SSW,201,0.0,3.0,64,0.00,,,0.00,weatherlink.com 1.10,2013-03-21 01:27:00,
2013-03-20 19:42:00,48.1,37.0,29.68,SW,233,5.0,6.0,65,0.00,,,0.00,weatherlink.com 1.10,2013-03-21 01:42:00,
2013-03-20 19:57:00,49.3,34.0,29.67,WSW,238,3.0,7.0,56,0.00,,,0.00,weatherlink.com 1.10,2013-03-21 01:57:00,
2013-03-20 20:12:00,48.7,35.0,29.67,SSW,208,1.0,4.0,59,0.00,,,0.00,weatherlink.com 1.10,2013-03-21 02:12:00,
2013-03-20 20:27:00,48.2,35.0,29.67,SSW,201,1.0,5.0,60,0.00,,,0.00,weatherlink.com 1.10,2013-03-21 02:27:00,
2013-03-20 20:42:00,47.2,35.0,29.66,WSW,240,0.0,0.0,64,0.00,,,0.00,weatherlink.com 1.10,2013-03-21 02:42:00,
2013-03-20 20:57:00,45.0,37.0,29.66,NW,326,0.0,2.0,73,0.00,,,0.00,weatherlink.com 1.10,2013-03-21 02:57:00,
2013-03-20 21:12:00,44.5,37.0,29.66,SE,132,0.0,2.0,75,0.00,,,0.00,weatherlink.com 1.10,2013-03-21 03:12:00,
2013-03-20 21:27:00,43.6,37.0,29.65,SSE,158,1.0,2.0,77,0.00,,,0.00,weatherlink.com 1.10,2013-03-21 03:27:00,
2013-03-20 21:42:00,44.3,33.0,29.64,SW,226,0.0,3.0,65,0.00,,,0.00,weatherlink.com 1.10,2013-03-21 03:42:00,
2013-03-20 21:57:00,45.6,31.0,29.64,SSW,210,1.0,3.0,57,0.00,,,0.00,weatherlink.com 1.10,2013-03-21 03:57:00,
2013-03-20 22:12:00,46.5,30.0,29.64,SSW,212,3.0,5.0,52,0.00,,,0.00,weatherlink.com 1.10,2013-03-21 04:12:00,
2013-03-20 22:27:00,46.8,29.0,29.63,WSW,239,2.0,7.0,51,0.00,,,0.00,weatherlink.com 1.10,2013-03-21 04:27:00,
2013-03-20 22:42:00,46.9,29.0,29.63,East,101,3.0,6.0,50,0.00,,,0.00,weatherlink.com 1.10,2013-03-21 04:42:00,
2013-03-20 22:57:00,46.0,29.0,29.62,SSW,205,2.0,7.0,52,0.00,,,0.00,weatherlink.com 1.10,2013-03-21 04:57:00,
2013-03-20 23:12:00,44.9,30.0,29.62,SSW,210,1.0,3.0,56,0.00,,,0.00,weatherlink.com 1.10,2013-03-21 05:12:00,
2013-03-20 23:27:00,44.2,30.0,29.61,SW,215,1.0,5.0,58,0.00,,,0.00,weatherlink.com 1.10,2013-03-21 05:27:00,
2013-03-20 23:42:00,43.3,30.0,29.61,SSW,202,0.0,2.0,61,0.00,,,0.00,weatherlink.com 1.10,2013-03-21 05:42:00,
2013-03-20 23:57:00,42.2,30.0,29.60,SW,235,1.0,2.0,63,0.00,,,0.00,weatherlink.com 1.10,2013-03-21 05:57:00,